sensor_id;sensor_type;location;lat;lon;timestamp;P1;durP1;ratioP1;P2;durP2;ratioP2
48623;SDS011;34422;45.802;16.114;2023-01-20T00:00:45;120.53;;;34.33;;
48623;SDS011;34422;45.802;16.114;2023-01-20T00:03:12;105.57;;;31.10;;
48623;SDS011;34422;45.802;16.114;2023-01-20T00:05:39;66.87;;;27.23;;
48623;SDS011;34422;45.802;16.114;2023-01-20T00:08:05;85.07;;;28.57;;
48623;SDS011;34422;45.802;16.114;2023-01-20T00:10:32;68.17;;;27.67;;
48623;SDS011;34422;45.802;16.114;2023-01-20T00:12:59;82.90;;;29.15;;
48623;SDS011;34422;45.802;16.114;2023-01-20T00:15:26;82.40;;;28.53;;
48623;SDS011;34422;45.802;16.114;2023-01-20T00:17:52;67.50;;;28.57;;
48623;SDS011;34422;45.802;16.114;2023-01-20T00:20:19;72.27;;;28.03;;
48623;SDS011;34422;45.802;16.114;2023-01-20T00:22:46;64.07;;;29.63;;
48623;SDS011;34422;45.802;16.114;2023-01-20T00:25:13;64.93;;;28.97;;
48623;SDS011;34422;45.802;16.114;2023-01-20T00:27:40;58.30;;;28.98;;
48623;SDS011;34422;45.802;16.114;2023-01-20T00:30:07;70.70;;;30.63;;
48623;SDS011;34422;45.802;16.114;2023-01-20T00:32:37;69.77;;;32.07;;
48623;SDS011;34422;45.802;16.114;2023-01-20T00:35:10;71.53;;;31.10;;
48623;SDS011;34422;45.802;16.114;2023-01-20T00:37:37;57.38;;;28.00;;
48623;SDS011;34422;45.802;16.114;2023-01-20T00:40:04;63.15;;;29.52;;
48623;SDS011;34422;45.802;16.114;2023-01-20T00:42:32;80.27;;;31.50;;
48623;SDS011;34422;45.802;16.114;2023-01-20T00:44:59;77.05;;;30.98;;
48623;SDS011;34422;45.802;16.114;2023-01-20T00:47:25;76.68;;;32.20;;
48623;SDS011;34422;45.802;16.114;2023-01-20T00:49:52;81.97;;;32.72;;
48623;SDS011;34422;45.802;16.114;2023-01-20T00:52:19;70.63;;;29.38;;
48623;SDS011;34422;45.802;16.114;2023-01-20T00:54:46;79.53;;;30.80;;
48623;SDS011;34422;45.802;16.114;2023-01-20T00:57:13;73.07;;;28.93;;
48623;SDS011;34422;45.802;16.114;2023-01-20T00:59:39;73.43;;;30.70;;
48623;SDS011;34422;45.802;16.114;2023-01-20T01:02:06;87.30;;;30.20;;
48623;SDS011;34422;45.802;16.114;2023-01-20T01:04:33;68.90;;;29.98;;
48623;SDS011;34422;45.802;16.114;2023-01-20T01:07:00;77.40;;;33.08;;
48623;SDS011;34422;45.802;16.114;2023-01-20T01:09:26;64.97;;;29.02;;
48623;SDS011;34422;45.802;16.114;2023-01-20T01:11:54;71.25;;;29.67;;
48623;SDS011;34422;45.802;16.114;2023-01-20T01:14:21;84.32;;;31.33;;
48623;SDS011;34422;45.802;16.114;2023-01-20T01:16:47;75.20;;;30.98;;
48623;SDS011;34422;45.802;16.114;2023-01-20T01:19:16;70.20;;;30.63;;
48623;SDS011;34422;45.802;16.114;2023-01-20T01:21:44;96.63;;;31.67;;
48623;SDS011;34422;45.802;16.114;2023-01-20T01:24:10;69.57;;;27.55;;
48623;SDS011;34422;45.802;16.114;2023-01-20T01:26:37;71.93;;;29.85;;
48623;SDS011;34422;45.802;16.114;2023-01-20T01:29:04;76.20;;;30.35;;
48623;SDS011;34422;45.802;16.114;2023-01-20T01:31:31;68.25;;;29.50;;
48623;SDS011;34422;45.802;16.114;2023-01-20T01:33:58;69.13;;;29.73;;
48623;SDS011;34422;45.802;16.114;2023-01-20T01:36:25;68.95;;;27.08;;
48623;SDS011;34422;45.802;16.114;2023-01-20T01:38:52;75.22;;;28.80;;
48623;SDS011;34422;45.802;16.114;2023-01-20T01:41:19;63.58;;;27.33;;
48623;SDS011;34422;45.802;16.114;2023-01-20T01:43:59;72.95;;;28.48;;
48623;SDS011;34422;45.802;16.114;2023-01-20T01:46:26;63.70;;;27.42;;
48623;SDS011;34422;45.802;16.114;2023-01-20T01:48:52;63.92;;;26.08;;
48623;SDS011;34422;45.802;16.114;2023-01-20T01:51:27;62.60;;;25.92;;
48623;SDS011;34422;45.802;16.114;2023-01-20T01:54:02;57.60;;;24.27;;
48623;SDS011;34422;45.802;16.114;2023-01-20T01:56:34;56.47;;;25.10;;
48623;SDS011;34422;45.802;16.114;2023-01-20T01:59:04;59.50;;;26.30;;
48623;SDS011;34422;45.802;16.114;2023-01-20T02:01:31;63.92;;;25.60;;
48623;SDS011;34422;45.802;16.114;2023-01-20T02:04:04;59.75;;;25.70;;
48623;SDS011;34422;45.802;16.114;2023-01-20T02:06:36;53.17;;;24.92;;
48623;SDS011;34422;45.802;16.114;2023-01-20T02:09:06;56.55;;;26.35;;
48623;SDS011;34422;45.802;16.114;2023-01-20T02:17:04;43.47;;;20.52;;
48623;SDS011;34422;45.802;16.114;2023-01-20T02:22:26;48.60;;;24.13;;
48623;SDS011;34422;45.802;16.114;2023-01-20T02:33:12;45.78;;;22.90;;
48623;SDS011;34422;45.802;16.114;2023-01-20T02:35:48;52.67;;;23.48;;
48623;SDS011;34422;45.802;16.114;2023-01-20T02:44:09;47.10;;;22.38;;
48623;SDS011;34422;45.802;16.114;2023-01-20T02:46:47;46.45;;;23.88;;
48623;SDS011;34422;45.802;16.114;2023-01-20T02:49:26;47.75;;;22.63;;
48623;SDS011;34422;45.802;16.114;2023-01-20T02:52:10;48.55;;;22.67;;
48623;SDS011;34422;45.802;16.114;2023-01-20T02:54:43;49.83;;;22.83;;
48623;SDS011;34422;45.802;16.114;2023-01-20T02:57:15;44.45;;;22.23;;
48623;SDS011;34422;45.802;16.114;2023-01-20T02:59:48;51.67;;;25.05;;
48623;SDS011;34422;45.802;16.114;2023-01-20T03:02:19;45.92;;;23.23;;
48623;SDS011;34422;45.802;16.114;2023-01-20T03:04:49;46.35;;;21.70;;
48623;SDS011;34422;45.802;16.114;2023-01-20T03:07:43;49.10;;;23.27;;
48623;SDS011;34422;45.802;16.114;2023-01-20T03:10:13;48.50;;;24.52;;
48623;SDS011;34422;45.802;16.114;2023-01-20T03:12:45;53.20;;;25.95;;
48623;SDS011;34422;45.802;16.114;2023-01-20T03:15:15;48.72;;;24.15;;
48623;SDS011;34422;45.802;16.114;2023-01-20T03:17:48;50.97;;;25.60;;
48623;SDS011;34422;45.802;16.114;2023-01-20T03:20:15;48.15;;;23.63;;
48623;SDS011;34422;45.802;16.114;2023-01-20T03:22:42;49.33;;;23.05;;
48623;SDS011;34422;45.802;16.114;2023-01-20T03:25:09;50.55;;;24.35;;
48623;SDS011;34422;45.802;16.114;2023-01-20T03:27:36;49.15;;;23.98;;
48623;SDS011;34422;45.802;16.114;2023-01-20T03:30:05;49.38;;;24.20;;
48623;SDS011;34422;45.802;16.114;2023-01-20T03:32:42;51.78;;;25.02;;
48623;SDS011;34422;45.802;16.114;2023-01-20T03:35:12;49.60;;;25.45;;
48623;SDS011;34422;45.802;16.114;2023-01-20T03:37:42;42.35;;;23.90;;
48623;SDS011;34422;45.802;16.114;2023-01-20T03:40:09;43.97;;;23.08;;
48623;SDS011;34422;45.802;16.114;2023-01-20T03:48:34;48.60;;;25.10;;
48623;SDS011;34422;45.802;16.114;2023-01-20T03:53:58;45.45;;;23.25;;
48623;SDS011;34422;45.802;16.114;2023-01-20T03:58:59;46.47;;;22.75;;
48623;SDS011;34422;45.802;16.114;2023-01-20T04:01:29;43.63;;;23.10;;
48623;SDS011;34422;45.802;16.114;2023-01-20T04:04:02;44.03;;;24.35;;
48623;SDS011;34422;45.802;16.114;2023-01-20T04:06:30;48.47;;;24.95;;
48623;SDS011;34422;45.802;16.114;2023-01-20T04:09:00;49.72;;;24.77;;
48623;SDS011;34422;45.802;16.114;2023-01-20T04:11:30;47.45;;;24.08;;
48623;SDS011;34422;45.802;16.114;2023-01-20T04:13:57;44.05;;;23.33;;
48623;SDS011;34422;45.802;16.114;2023-01-20T04:16:24;44.17;;;22.55;;
48623;SDS011;34422;45.802;16.114;2023-01-20T04:18:52;41.28;;;21.80;;
48623;SDS011;34422;45.802;16.114;2023-01-20T04:21:30;40.85;;;23.23;;
48623;SDS011;34422;45.802;16.114;2023-01-20T04:26:40;41.90;;;22.02;;
48623;SDS011;34422;45.802;16.114;2023-01-20T04:29:07;42.47;;;21.52;;
48623;SDS011;34422;45.802;16.114;2023-01-20T04:31:35;40.30;;;21.33;;
48623;SDS011;34422;45.802;16.114;2023-01-20T04:34:02;39.03;;;19.65;;
48623;SDS011;34422;45.802;16.114;2023-01-20T04:36:31;41.95;;;21.63;;
48623;SDS011;34422;45.802;16.114;2023-01-20T04:38:58;38.17;;;20.77;;
48623;SDS011;34422;45.802;16.114;2023-01-20T04:41:25;36.80;;;20.63;;
48623;SDS011;34422;45.802;16.114;2023-01-20T04:43:51;37.53;;;22.02;;
48623;SDS011;34422;45.802;16.114;2023-01-20T04:46:18;37.58;;;22.00;;
48623;SDS011;34422;45.802;16.114;2023-01-20T04:48:45;35.05;;;20.73;;
48623;SDS011;34422;45.802;16.114;2023-01-20T04:51:12;38.33;;;20.45;;
48623;SDS011;34422;45.802;16.114;2023-01-20T04:53:39;37.17;;;21.05;;
48623;SDS011;34422;45.802;16.114;2023-01-20T04:56:15;33.10;;;19.13;;
48623;SDS011;34422;45.802;16.114;2023-01-20T04:58:42;32.33;;;16.60;;
48623;SDS011;34422;45.802;16.114;2023-01-20T05:01:09;26.42;;;15.48;;
48623;SDS011;34422;45.802;16.114;2023-01-20T05:03:35;26.70;;;15.93;;
48623;SDS011;34422;45.802;16.114;2023-01-20T05:06:02;26.92;;;15.00;;
48623;SDS011;34422;45.802;16.114;2023-01-20T05:08:29;24.10;;;12.85;;
48623;SDS011;34422;45.802;16.114;2023-01-20T05:10:56;24.17;;;13.98;;
48623;SDS011;34422;45.802;16.114;2023-01-20T05:13:23;23.00;;;13.38;;
48623;SDS011;34422;45.802;16.114;2023-01-20T05:15:49;26.98;;;14.73;;
48623;SDS011;34422;45.802;16.114;2023-01-20T05:18:16;22.08;;;12.95;;
48623;SDS011;34422;45.802;16.114;2023-01-20T05:20:44;20.33;;;12.55;;
48623;SDS011;34422;45.802;16.114;2023-01-20T05:23:12;21.42;;;13.18;;
48623;SDS011;34422;45.802;16.114;2023-01-20T05:25:39;22.40;;;11.82;;
48623;SDS011;34422;45.802;16.114;2023-01-20T05:28:06;23.40;;;13.15;;
48623;SDS011;34422;45.802;16.114;2023-01-20T05:30:33;24.15;;;14.23;;
48623;SDS011;34422;45.802;16.114;2023-01-20T05:32:59;20.35;;;11.65;;
48623;SDS011;34422;45.802;16.114;2023-01-20T05:35:26;21.05;;;12.27;;
48623;SDS011;34422;45.802;16.114;2023-01-20T05:37:54;20.75;;;11.57;;
48623;SDS011;34422;45.802;16.114;2023-01-20T05:40:21;20.48;;;12.45;;
48623;SDS011;34422;45.802;16.114;2023-01-20T05:42:48;23.42;;;11.00;;
48623;SDS011;34422;45.802;16.114;2023-01-20T05:45:15;22.60;;;12.82;;
48623;SDS011;34422;45.802;16.114;2023-01-20T05:47:41;20.02;;;10.88;;
48623;SDS011;34422;45.802;16.114;2023-01-20T05:50:08;19.98;;;11.35;;
48623;SDS011;34422;45.802;16.114;2023-01-20T05:52:36;18.33;;;11.05;;
48623;SDS011;34422;45.802;16.114;2023-01-20T05:55:03;18.88;;;9.95;;
48623;SDS011;34422;45.802;16.114;2023-01-20T05:57:30;19.10;;;9.88;;
48623;SDS011;34422;45.802;16.114;2023-01-20T05:59:57;18.00;;;11.18;;
48623;SDS011;34422;45.802;16.114;2023-01-20T06:02:24;18.63;;;11.38;;
48623;SDS011;34422;45.802;16.114;2023-01-20T06:04:50;18.17;;;11.07;;
48623;SDS011;34422;45.802;16.114;2023-01-20T06:07:17;16.30;;;10.40;;
48623;SDS011;34422;45.802;16.114;2023-01-20T06:09:44;22.05;;;10.82;;
48623;SDS011;34422;45.802;16.114;2023-01-20T06:12:11;18.60;;;11.10;;
48623;SDS011;34422;45.802;16.114;2023-01-20T06:14:38;19.17;;;10.77;;
48623;SDS011;34422;45.802;16.114;2023-01-20T06:17:04;19.30;;;10.73;;
48623;SDS011;34422;45.802;16.114;2023-01-20T06:19:32;21.40;;;11.32;;
48623;SDS011;34422;45.802;16.114;2023-01-20T06:21:58;21.90;;;12.07;;
48623;SDS011;34422;45.802;16.114;2023-01-20T06:24:25;20.95;;;13.05;;
48623;SDS011;34422;45.802;16.114;2023-01-20T06:26:52;22.15;;;12.43;;
48623;SDS011;34422;45.802;16.114;2023-01-20T06:29:19;19.10;;;10.77;;
48623;SDS011;34422;45.802;16.114;2023-01-20T06:31:49;19.85;;;10.40;;
48623;SDS011;34422;45.802;16.114;2023-01-20T06:34:16;17.73;;;10.43;;
48623;SDS011;34422;45.802;16.114;2023-01-20T06:36:43;20.08;;;10.40;;
48623;SDS011;34422;45.802;16.114;2023-01-20T06:39:10;17.90;;;10.23;;
48623;SDS011;34422;45.802;16.114;2023-01-20T06:41:37;15.98;;;9.88;;
48623;SDS011;34422;45.802;16.114;2023-01-20T06:44:03;18.15;;;10.13;;
48623;SDS011;34422;45.802;16.114;2023-01-20T06:46:30;19.10;;;11.15;;
48623;SDS011;34422;45.802;16.114;2023-01-20T06:48:58;18.52;;;10.05;;
48623;SDS011;34422;45.802;16.114;2023-01-20T06:51:28;21.42;;;10.52;;
48623;SDS011;34422;45.802;16.114;2023-01-20T06:53:56;15.05;;;8.95;;
48623;SDS011;34422;45.802;16.114;2023-01-20T06:56:23;20.55;;;10.55;;
48623;SDS011;34422;45.802;16.114;2023-01-20T06:58:50;18.50;;;10.52;;
48623;SDS011;34422;45.802;16.114;2023-01-20T07:01:19;17.02;;;10.50;;
48623;SDS011;34422;45.802;16.114;2023-01-20T07:03:48;16.27;;;10.27;;
48623;SDS011;34422;45.802;16.114;2023-01-20T07:06:17;16.48;;;10.15;;
48623;SDS011;34422;45.802;16.114;2023-01-20T07:08:52;17.80;;;10.10;;
48623;SDS011;34422;45.802;16.114;2023-01-20T07:11:19;15.10;;;9.35;;
48623;SDS011;34422;45.802;16.114;2023-01-20T07:13:46;15.30;;;9.88;;
48623;SDS011;34422;45.802;16.114;2023-01-20T07:16:13;14.75;;;9.70;;
48623;SDS011;34422;45.802;16.114;2023-01-20T07:18:40;16.70;;;10.48;;
48623;SDS011;34422;45.802;16.114;2023-01-20T07:21:08;17.70;;;9.43;;
48623;SDS011;34422;45.802;16.114;2023-01-20T07:23:37;16.73;;;9.52;;
48623;SDS011;34422;45.802;16.114;2023-01-20T07:26:11;15.23;;;8.60;;
48623;SDS011;34422;45.802;16.114;2023-01-20T07:28:39;15.07;;;8.98;;
48623;SDS011;34422;45.802;16.114;2023-01-20T07:31:08;12.73;;;7.90;;
48623;SDS011;34422;45.802;16.114;2023-01-20T07:33:37;17.55;;;10.30;;
48623;SDS011;34422;45.802;16.114;2023-01-20T07:36:05;20.75;;;9.45;;
48623;SDS011;34422;45.802;16.114;2023-01-20T07:38:33;17.50;;;8.68;;
48623;SDS011;34422;45.802;16.114;2023-01-20T07:41:04;16.92;;;8.10;;
48623;SDS011;34422;45.802;16.114;2023-01-20T07:43:33;15.93;;;8.07;;
48623;SDS011;34422;45.802;16.114;2023-01-20T07:46:00;19.13;;;8.90;;
48623;SDS011;34422;45.802;16.114;2023-01-20T07:48:30;16.35;;;8.90;;
48623;SDS011;34422;45.802;16.114;2023-01-20T07:50:59;15.73;;;9.02;;
48623;SDS011;34422;45.802;16.114;2023-01-20T07:53:28;15.38;;;9.13;;
48623;SDS011;34422;45.802;16.114;2023-01-20T07:55:59;14.25;;;9.27;;
48623;SDS011;34422;45.802;16.114;2023-01-20T07:58:27;15.88;;;9.48;;
48623;SDS011;34422;45.802;16.114;2023-01-20T08:00:54;14.25;;;7.63;;
48623;SDS011;34422;45.802;16.114;2023-01-20T08:03:21;16.50;;;8.93;;
48623;SDS011;34422;45.802;16.114;2023-01-20T08:05:48;16.67;;;9.50;;
48623;SDS011;34422;45.802;16.114;2023-01-20T08:08:15;14.63;;;8.90;;
48623;SDS011;34422;45.802;16.114;2023-01-20T08:10:42;16.70;;;9.48;;
48623;SDS011;34422;45.802;16.114;2023-01-20T08:13:09;22.17;;;10.50;;
48623;SDS011;34422;45.802;16.114;2023-01-20T08:15:36;16.92;;;9.85;;
48623;SDS011;34422;45.802;16.114;2023-01-20T08:18:03;20.23;;;10.65;;
48623;SDS011;34422;45.802;16.114;2023-01-20T08:20:30;15.93;;;9.98;;
48623;SDS011;34422;45.802;16.114;2023-01-20T08:22:57;18.83;;;10.18;;
48623;SDS011;34422;45.802;16.114;2023-01-20T08:25:23;17.60;;;9.80;;
48623;SDS011;34422;45.802;16.114;2023-01-20T08:27:50;14.68;;;9.10;;
48623;SDS011;34422;45.802;16.114;2023-01-20T08:30:17;16.13;;;8.38;;
48623;SDS011;34422;45.802;16.114;2023-01-20T08:32:44;12.13;;;7.70;;
48623;SDS011;34422;45.802;16.114;2023-01-20T08:35:10;15.50;;;7.88;;
48623;SDS011;34422;45.802;16.114;2023-01-20T08:37:38;14.55;;;8.10;;
48623;SDS011;34422;45.802;16.114;2023-01-20T08:40:08;15.65;;;7.65;;
48623;SDS011;34422;45.802;16.114;2023-01-20T08:42:36;11.20;;;6.63;;
48623;SDS011;34422;45.802;16.114;2023-01-20T08:45:04;14.43;;;7.25;;
48623;SDS011;34422;45.802;16.114;2023-01-20T08:47:36;14.60;;;7.90;;
48623;SDS011;34422;45.802;16.114;2023-01-20T08:50:05;14.43;;;7.32;;
48623;SDS011;34422;45.802;16.114;2023-01-20T08:52:32;13.52;;;7.03;;
48623;SDS011;34422;45.802;16.114;2023-01-20T08:54:59;10.95;;;6.85;;
48623;SDS011;34422;45.802;16.114;2023-01-20T08:57:26;11.40;;;6.70;;
48623;SDS011;34422;45.802;16.114;2023-01-20T08:59:53;12.82;;;6.90;;
48623;SDS011;34422;45.802;16.114;2023-01-20T09:02:20;15.18;;;6.25;;
48623;SDS011;34422;45.802;16.114;2023-01-20T09:04:50;13.23;;;7.05;;
48623;SDS011;34422;45.802;16.114;2023-01-20T09:07:18;14.25;;;6.53;;
48623;SDS011;34422;45.802;16.114;2023-01-20T09:09:45;12.32;;;5.57;;
48623;SDS011;34422;45.802;16.114;2023-01-20T09:12:12;14.93;;;6.57;;
48623;SDS011;34422;45.802;16.114;2023-01-20T09:14:39;13.25;;;6.82;;
48623;SDS011;34422;45.802;16.114;2023-01-20T09:17:06;10.43;;;6.05;;
48623;SDS011;34422;45.802;16.114;2023-01-20T09:19:32;12.60;;;7.05;;
48623;SDS011;34422;45.802;16.114;2023-01-20T09:22:00;13.20;;;6.45;;
48623;SDS011;34422;45.802;16.114;2023-01-20T09:24:26;16.15;;;7.45;;
48623;SDS011;34422;45.802;16.114;2023-01-20T09:26:53;13.85;;;7.00;;
48623;SDS011;34422;45.802;16.114;2023-01-20T09:29:22;13.15;;;6.63;;
48623;SDS011;34422;45.802;16.114;2023-01-20T09:31:50;12.38;;;7.13;;
48623;SDS011;34422;45.802;16.114;2023-01-20T09:34:26;13.63;;;6.07;;
48623;SDS011;34422;45.802;16.114;2023-01-20T09:39:22;13.05;;;6.97;;
48623;SDS011;34422;45.802;16.114;2023-01-20T09:47:50;8.32;;;5.05;;
48623;SDS011;34422;45.802;16.114;2023-01-20T09:50:29;8.98;;;4.82;;
48623;SDS011;34422;45.802;16.114;2023-01-20T09:56:18;9.98;;;4.93;;
48623;SDS011;34422;45.802;16.114;2023-01-20T10:01:41;8.18;;;4.72;;
48623;SDS011;34422;45.802;16.114;2023-01-20T10:09:41;11.70;;;5.03;;
48623;SDS011;34422;45.802;16.114;2023-01-20T10:12:17;9.45;;;4.40;;
48623;SDS011;34422;45.802;16.114;2023-01-20T10:14:54;7.68;;;4.70;;
48623;SDS011;34422;45.802;16.114;2023-01-20T10:17:59;10.10;;;4.43;;
48623;SDS011;34422;45.802;16.114;2023-01-20T10:20:57;10.77;;;5.10;;
48623;SDS011;34422;45.802;16.114;2023-01-20T10:26:31;11.70;;;5.13;;
48623;SDS011;34422;45.802;16.114;2023-01-20T10:29:08;10.82;;;5.18;;
48623;SDS011;34422;45.802;16.114;2023-01-20T10:31:43;9.68;;;5.13;;
48623;SDS011;34422;45.802;16.114;2023-01-20T10:34:17;10.95;;;5.00;;
48623;SDS011;34422;45.802;16.114;2023-01-20T10:36:48;9.18;;;5.32;;
48623;SDS011;34422;45.802;16.114;2023-01-20T10:40:09;9.10;;;4.75;;
48623;SDS011;34422;45.802;16.114;2023-01-20T10:42:29;8.50;;;4.18;;
48623;SDS011;34422;45.802;16.114;2023-01-20T10:44:55;9.95;;;4.47;;
48623;SDS011;34422;45.802;16.114;2023-01-20T10:56:21;7.85;;;4.55;;
48623;SDS011;34422;45.802;16.114;2023-01-20T11:00:05;10.07;;;4.40;;
48623;SDS011;34422;45.802;16.114;2023-01-20T11:02:19;6.72;;;3.67;;
48623;SDS011;34422;45.802;16.114;2023-01-20T11:04:58;8.27;;;3.42;;
48623;SDS011;34422;45.802;16.114;2023-01-20T11:07:27;7.05;;;3.88;;
48623;SDS011;34422;45.802;16.114;2023-01-20T11:09:58;7.47;;;4.25;;
48623;SDS011;34422;45.802;16.114;2023-01-20T11:12:39;9.57;;;4.43;;
48623;SDS011;34422;45.802;16.114;2023-01-20T11:15:19;8.00;;;4.07;;
48623;SDS011;34422;45.802;16.114;2023-01-20T11:20:56;9.18;;;4.20;;
48623;SDS011;34422;45.802;16.114;2023-01-20T11:28:48;10.75;;;5.97;;
48623;SDS011;34422;45.802;16.114;2023-01-20T11:31:15;10.07;;;4.25;;
48623;SDS011;34422;45.802;16.114;2023-01-20T11:33:56;8.30;;;4.15;;
48623;SDS011;34422;45.802;16.114;2023-01-20T11:36:24;8.50;;;5.07;;
48623;SDS011;34422;45.802;16.114;2023-01-20T11:38:53;8.93;;;4.85;;
48623;SDS011;34422;45.802;16.114;2023-01-20T11:41:23;8.90;;;4.68;;
48623;SDS011;34422;45.802;16.114;2023-01-20T11:43:55;9.50;;;4.90;;
48623;SDS011;34422;45.802;16.114;2023-01-20T11:46:30;7.00;;;4.20;;
48623;SDS011;34422;45.802;16.114;2023-01-20T11:49:14;8.13;;;5.03;;
48623;SDS011;34422;45.802;16.114;2023-01-20T11:51:44;7.72;;;4.47;;
48623;SDS011;34422;45.802;16.114;2023-01-20T11:54:17;11.15;;;5.30;;
48623;SDS011;34422;45.802;16.114;2023-01-20T11:56:47;11.40;;;5.15;;
48623;SDS011;34422;45.802;16.114;2023-01-20T11:59:45;9.50;;;4.35;;
48623;SDS011;34422;45.802;16.114;2023-01-20T12:07:32;7.07;;;3.97;;
48623;SDS011;34422;45.802;16.114;2023-01-20T12:10:13;8.23;;;4.03;;
48623;SDS011;34422;45.802;16.114;2023-01-20T12:12:52;8.60;;;4.18;;
48623;SDS011;34422;45.802;16.114;2023-01-20T12:15:26;10.50;;;4.47;;
48623;SDS011;34422;45.802;16.114;2023-01-20T12:18:16;8.40;;;3.70;;
48623;SDS011;34422;45.802;16.114;2023-01-20T12:20:57;8.75;;;4.32;;
48623;SDS011;34422;45.802;16.114;2023-01-20T12:26:21;8.65;;;3.80;;
48623;SDS011;34422;45.802;16.114;2023-01-20T12:28:54;8.38;;;4.50;;
48623;SDS011;34422;45.802;16.114;2023-01-20T12:31:25;7.47;;;3.53;;
48623;SDS011;34422;45.802;16.114;2023-01-20T12:33:55;7.65;;;4.13;;
48623;SDS011;34422;45.802;16.114;2023-01-20T12:39:46;9.30;;;4.10;;
48623;SDS011;34422;45.802;16.114;2023-01-20T12:45:47;8.18;;;3.72;;
48623;SDS011;34422;45.802;16.114;2023-01-20T12:48:28;8.77;;;3.80;;
48623;SDS011;34422;45.802;16.114;2023-01-20T12:57:08;7.13;;;3.50;;
48623;SDS011;34422;45.802;16.114;2023-01-20T13:12:50;6.57;;;3.17;;
48623;SDS011;34422;45.802;16.114;2023-01-20T13:15:33;6.28;;;3.22;;
48623;SDS011;34422;45.802;16.114;2023-01-20T13:20:39;7.18;;;3.50;;
48623;SDS011;34422;45.802;16.114;2023-01-20T13:25:42;6.65;;;3.03;;
48623;SDS011;34422;45.802;16.114;2023-01-20T13:28:18;7.22;;;4.28;;
48623;SDS011;34422;45.802;16.114;2023-01-20T13:30:49;9.77;;;4.25;;
48623;SDS011;34422;45.802;16.114;2023-01-20T13:33:28;8.27;;;4.32;;
48623;SDS011;34422;45.802;16.114;2023-01-20T13:36:20;12.07;;;5.60;;
48623;SDS011;34422;45.802;16.114;2023-01-20T13:41:54;8.48;;;4.57;;
48623;SDS011;34422;45.802;16.114;2023-01-20T13:46:58;6.97;;;3.88;;
48623;SDS011;34422;45.802;16.114;2023-01-20T13:49:26;6.72;;;4.32;;
48623;SDS011;34422;45.802;16.114;2023-01-20T13:51:54;11.45;;;4.70;;
48623;SDS011;34422;45.802;16.114;2023-01-20T13:56:48;7.90;;;4.60;;
48623;SDS011;34422;45.802;16.114;2023-01-20T13:59:15;9.35;;;4.88;;
48623;SDS011;34422;45.802;16.114;2023-01-20T14:01:42;9.48;;;4.07;;
48623;SDS011;34422;45.802;16.114;2023-01-20T14:04:16;7.65;;;3.95;;
48623;SDS011;34422;45.802;16.114;2023-01-20T14:06:48;8.00;;;4.72;;
48623;SDS011;34422;45.802;16.114;2023-01-20T14:09:21;10.77;;;4.72;;
48623;SDS011;34422;45.802;16.114;2023-01-20T14:11:50;8.73;;;4.80;;
48623;SDS011;34422;45.802;16.114;2023-01-20T14:14:22;9.18;;;4.70;;
48623;SDS011;34422;45.802;16.114;2023-01-20T14:16:50;9.65;;;4.95;;
48623;SDS011;34422;45.802;16.114;2023-01-20T14:19:31;10.65;;;5.50;;
48623;SDS011;34422;45.802;16.114;2023-01-20T14:22:01;8.23;;;4.38;;
48623;SDS011;34422;45.802;16.114;2023-01-20T14:29:47;11.88;;;5.45;;
48623;SDS011;34422;45.802;16.114;2023-01-20T14:34:47;12.35;;;6.88;;
48623;SDS011;34422;45.802;16.114;2023-01-20T14:37:26;11.52;;;6.53;;
48623;SDS011;34422;45.802;16.114;2023-01-20T14:42:37;13.05;;;6.53;;
48623;SDS011;34422;45.802;16.114;2023-01-20T14:45:16;13.55;;;7.55;;
48623;SDS011;34422;45.802;16.114;2023-01-20T14:47:44;12.25;;;6.05;;
48623;SDS011;34422;45.802;16.114;2023-01-20T14:50:12;12.68;;;6.95;;
48623;SDS011;34422;45.802;16.114;2023-01-20T14:52:40;14.35;;;7.53;;
48623;SDS011;34422;45.802;16.114;2023-01-20T14:57:53;23.55;;;14.50;;
48623;SDS011;34422;45.802;16.114;2023-01-20T15:00:21;16.45;;;8.23;;
48623;SDS011;34422;45.802;16.114;2023-01-20T15:08:24;15.63;;;9.20;;
48623;SDS011;34422;45.802;16.114;2023-01-20T15:13:42;18.67;;;10.00;;
48623;SDS011;34422;45.802;16.114;2023-01-20T15:16:37;17.27;;;10.05;;
48623;SDS011;34422;45.802;16.114;2023-01-20T15:24:17;28.10;;;17.15;;
48623;SDS011;34422;45.802;16.114;2023-01-20T15:26:46;23.70;;;13.82;;
48623;SDS011;34422;45.802;16.114;2023-01-20T15:29:28;22.25;;;14.63;;
48623;SDS011;34422;45.802;16.114;2023-01-20T15:31:58;24.25;;;14.02;;
48623;SDS011;34422;45.802;16.114;2023-01-20T15:34:27;22.38;;;13.45;;
48623;SDS011;34422;45.802;16.114;2023-01-20T15:36:55;21.98;;;12.68;;
48623;SDS011;34422;45.802;16.114;2023-01-20T15:39:23;20.55;;;12.73;;
48623;SDS011;34422;45.802;16.114;2023-01-20T15:41:54;26.58;;;14.90;;
48623;SDS011;34422;45.802;16.114;2023-01-20T15:44:25;24.20;;;15.23;;
48623;SDS011;34422;45.802;16.114;2023-01-20T15:46:52;26.13;;;15.32;;
48623;SDS011;34422;45.802;16.114;2023-01-20T15:49:19;27.95;;;15.30;;
48623;SDS011;34422;45.802;16.114;2023-01-20T15:51:46;26.80;;;15.98;;
48623;SDS011;34422;45.802;16.114;2023-01-20T15:54:13;28.90;;;16.48;;
48623;SDS011;34422;45.802;16.114;2023-01-20T15:56:40;31.63;;;18.40;;
48623;SDS011;34422;45.802;16.114;2023-01-20T15:59:15;30.30;;;18.25;;
48623;SDS011;34422;45.802;16.114;2023-01-20T16:01:43;28.05;;;17.23;;
48623;SDS011;34422;45.802;16.114;2023-01-20T16:04:12;31.48;;;17.13;;
48623;SDS011;34422;45.802;16.114;2023-01-20T16:06:39;32.35;;;17.67;;
48623;SDS011;34422;45.802;16.114;2023-01-20T16:11:52;29.42;;;18.17;;
48623;SDS011;34422;45.802;16.114;2023-01-20T16:14:19;33.47;;;20.48;;
48623;SDS011;34422;45.802;16.114;2023-01-20T16:16:46;34.72;;;20.23;;
48623;SDS011;34422;45.802;16.114;2023-01-20T16:19:13;32.25;;;20.00;;
48623;SDS011;34422;45.802;16.114;2023-01-20T16:21:40;46.65;;;25.17;;
48623;SDS011;34422;45.802;16.114;2023-01-20T16:24:07;35.25;;;20.40;;
48623;SDS011;34422;45.802;16.114;2023-01-20T16:26:34;31.30;;;20.05;;
48623;SDS011;34422;45.802;16.114;2023-01-20T16:29:01;33.38;;;19.52;;
48623;SDS011;34422;45.802;16.114;2023-01-20T16:31:30;50.35;;;30.35;;
48623;SDS011;34422;45.802;16.114;2023-01-20T16:33:58;41.78;;;23.98;;
48623;SDS011;34422;45.802;16.114;2023-01-20T16:36:25;37.80;;;20.45;;
48623;SDS011;34422;45.802;16.114;2023-01-20T16:38:52;39.50;;;22.67;;
48623;SDS011;34422;45.802;16.114;2023-01-20T16:41:23;35.20;;;21.23;;
48623;SDS011;34422;45.802;16.114;2023-01-20T16:43:52;39.80;;;24.13;;
48623;SDS011;34422;45.802;16.114;2023-01-20T16:46:21;40.30;;;24.42;;
48623;SDS011;34422;45.802;16.114;2023-01-20T16:48:49;36.78;;;23.42;;
48623;SDS011;34422;45.802;16.114;2023-01-20T16:51:36;36.28;;;21.73;;
48623;SDS011;34422;45.802;16.114;2023-01-20T16:54:03;35.90;;;21.90;;
48623;SDS011;34422;45.802;16.114;2023-01-20T16:56:30;37.90;;;23.83;;
48623;SDS011;34422;45.802;16.114;2023-01-20T16:58:59;31.90;;;20.27;;
48623;SDS011;34422;45.802;16.114;2023-01-20T17:01:27;35.75;;;21.88;;
48623;SDS011;34422;45.802;16.114;2023-01-20T17:03:56;49.42;;;28.35;;
48623;SDS011;34422;45.802;16.114;2023-01-20T17:06:25;35.83;;;22.40;;